Map

Track Data

SID SEASON NUMBER BASIN SUBBASIN NAME ISO_TIME NATURE LAT LON WMO_WIND WMO_PRES WMO_AGENCY TRACK_TYPE DIST2LAND LANDFALL IFLAG USA_AGENCY USA_ATCF_ID USA_LAT USA_LON USA_RECORD USA_STATUS USA_WIND USA_PRES USA_SSHS USA_R34_NE USA_R34_SE USA_R34_SW USA_R34_NW USA_R50_NE USA_R50_SE USA_R50_SW USA_R50_NW USA_R64_NE USA_R64_SE USA_R64_SW USA_R64_NW USA_POCI USA_ROCI USA_RMW USA_EYE TOKYO_LAT TOKYO_LON TOKYO_GRADE TOKYO_WIND TOKYO_PRES TOKYO_R50_DIR TOKYO_R50_LONG TOKYO_R50_SHORT TOKYO_R30_DIR TOKYO_R30_LONG TOKYO_R30_SHORT TOKYO_LAND CMA_LAT CMA_LON CMA_CAT CMA_WIND CMA_PRES HKO_LAT HKO_LON HKO_CAT HKO_WIND HKO_PRES NEWDELHI_LAT NEWDELHI_LON NEWDELHI_GRADE NEWDELHI_WIND NEWDELHI_PRES NEWDELHI_CI NEWDELHI_DP NEWDELHI_POCI REUNION_LAT REUNION_LON REUNION_TYPE REUNION_WIND REUNION_PRES REUNION_TNUM REUNION_CI REUNION_RMW REUNION_R34_NE REUNION_R34_SE REUNION_R34_SW REUNION_R34_NW REUNION_R50_NE REUNION_R50_SE REUNION_R50_SW REUNION_R50_NW REUNION_R64_NE REUNION_R64_SE REUNION_R64_SW REUNION_R64_NW BOM_LAT BOM_LON BOM_TYPE BOM_WIND BOM_PRES BOM_TNUM BOM_CI BOM_RMW BOM_R34_NE BOM_R34_SE BOM_R34_SW BOM_R34_NW BOM_R50_NE BOM_R50_SE BOM_R50_SW BOM_R50_NW BOM_R64_NE BOM_R64_SE BOM_R64_SW BOM_R64_NW BOM_ROCI BOM_POCI BOM_EYE BOM_POS_METHOD BOM_PRES_METHOD NADI_LAT NADI_LON NADI_CAT NADI_WIND NADI_PRES WELLINGTON_LAT WELLINGTON_LON WELLINGTON_WIND WELLINGTON_PRES DS824_LAT DS824_LON DS824_STAGE DS824_WIND DS824_PRES TD9636_LAT TD9636_LON TD9636_STAGE TD9636_WIND TD9636_PRES TD9635_LAT TD9635_LON TD9635_WIND TD9635_PRES TD9635_ROCI NEUMANN_LAT NEUMANN_LON NEUMANN_CLASS NEUMANN_WIND NEUMANN_PRES MLC_LAT MLC_LON MLC_CLASS MLC_WIND MLC_PRES USA_GUST BOM_GUST BOM_GUST_PER REUNION_GUST REUNION_GUST_PER USA_SEAHGT USA_SEARAD_NE USA_SEARAD_SE USA_SEARAD_SW USA_SEARAD_NW STORM_SPEED STORM_DIR
1994186N09139 1994 42 WP MM TIM 1994-07-05 00:00:00 NR 9.00000 139.000 main 1150 1146 O_____________ jtwc_wp WP081994 9.00000 139.000 15 -1 12 295
1994186N09139 1994 42 WP MM TIM 1994-07-05 03:00:00 NR 9.25017 138.450 main 1165 1156 P_____________ WP081994 9.25017 138.450 15 -1 12 295
1994186N09139 1994 42 WP MM TIM 1994-07-05 06:00:00 NR 9.50000 137.900 main 1171 1168 O_____________ jtwc_wp WP081994 9.50000 137.900 15 -1 12 295
1994186N09139 1994 42 WP MM TIM 1994-07-05 09:00:00 NR 9.74991 137.350 main 1180 1150 P_____________ WP081994 9.74991 137.350 17 -1 12 295
1994186N09139 1994 42 WP MM TIM 1994-07-05 12:00:00 NR 10.0000 136.800 main 1150 1102 O_____________ jtwc_wp WP081994 10.0000 136.800 20 -1 12 295
1994186N09139 1994 42 WP MM TIM 1994-07-05 15:00:00 NR 10.2499 136.250 main 1091 1047 P_____________ WP081994 10.2499 136.250 20 -1 12 295
1994186N09139 1994 42 WP MM TIM 1994-07-05 18:00:00 NR 10.5000 135.700 main 1047 999 O_____________ jtwc_wp WP081994 10.5000 135.700 20 -1 12 295
1994186N09139 1994 42 WP MM TIM 1994-07-05 21:00:00 NR 10.7499 135.142 main 988 942 P_____________ WP081994 10.7499 135.142 20 -1 12 295
1994186N09139 1994 42 WP MM TIM 1994-07-06 00:00:00 NR 11.0000 134.600 main 942 893 O_____________ jtwc_wp WP081994 11.0000 134.600 20 -1 12 296
1994186N09139 1994 42 WP MM TIM 1994-07-06 03:00:00 NR 11.2499 134.085 main 893 849 P_____________ WP081994 11.2499 134.085 20 -1 11 297
1994186N09139 1994 42 WP MM TIM 1994-07-06 06:00:00 NR 11.5000 133.600 main 849 811 O_____________ jtwc_wp WP081994 11.5000 133.600 20 -1 11 298
1994186N09139 1994 42 WP MM TIM 1994-07-06 09:00:00 NR 11.7425 133.127 main 800 760 P_____________ WP081994 11.7425 133.127 22 -1 10 300
1994186N09139 1994 42 WP MM TIM 1994-07-06 12:00:00 NR 12.0000 132.700 main 760 723 O_____________ jtwc_wp WP081994 12.0000 132.700 25 -1 10 305
1994186N09139 1994 42 WP MM TIM 1994-07-06 15:00:00 NR 12.2924 132.327 main 723 698 P_____________ WP081994 12.2924 132.327 25 -1 9 311
1994186N09139 1994 42 WP MM TIM 1994-07-06 18:00:00 NR 12.6000 132.000 main 698 673 O_____________ jtwc_wp WP081994 12.6000 132.000 25 -1 9 314
1994186N09139 1994 42 WP MM TIM 1994-07-06 21:00:00 NR 12.9000 131.685 main 676 657 P_____________ WP081994 12.9000 131.685 25 -1 7 311
1994186N09139 1994 42 WP MM TIM 1994-07-07 00:00:00 TS 13.0429 131.486 1002 tokyo main 657 639 OOOO__________ jtwc_wp WP081994 13.2000 131.400 25 -1 12.8000 131.600 2 1002 0 0 0 12.8000 131.600 1 29 1000 12.9000 131.600 TD 30 1000 6 312
1994186N09139 1994 42 WP MM TIM 1994-07-07 03:00:00 TS 13.2900 131.244 main 630 614 PPPP__________ WP081994 13.5000 131.135 27 -1 13.1026 131.290 2 1002 0 0 13.1450 131.320 1 29 1000 13.2026 131.340 TD 32 999 7 318
1994186N09139 1994 42 WP MM TIM 1994-07-07 06:00:00 TS 13.5692 130.992 1002 tokyo main 616 598 OOOO__________ jtwc_wp WP081994 13.8000 130.900 30 -1 13.4000 131.000 2 1002 0 0 0 13.5000 131.000 1 29 1000 13.5000 131.100 TS 35 998 8 319
1994186N09139 1994 42 WP MM TIM 1994-07-07 09:00:00 TS 13.8625 130.739 main 594 581 PPPP__________ WP081994 14.1000 130.692 32 -1 13.6925 130.742 2 1001 0 0 13.8651 130.628 1 29 1000 13.7925 130.892 TS 35 998 8 322
1994186N09139 1994 42 WP MM TIM 1994-07-07 12:00:00 TS 14.1750 130.500 1000 tokyo main 586 575 OOOO__________ jtwc_wp WP081994 14.4000 130.500 35 0 14.0000 130.500 2 1000 0 0 0 14.2000 130.300 1 29 1000 14.1000 130.700 TS 35 998 8 324
1994186N09139 1994 42 WP MM TIM 1994-07-07 15:00:00 TS 14.4725 130.289 main 579 570 PPPP__________ WP081994 14.7000 130.300 37 0 14.3200 130.235 2 999 0 0 14.4274 130.120 1 29 999 14.4425 130.500 TS 35 998 7 328
1994186N09139 1994 42 WP MM TIM 1994-07-07 18:00:00 TS 14.8000 130.100 998 tokyo main 576 572 OOOO__________ jtwc_wp WP081994 15.0000 130.100 40 0 14.7000 130.000 2 998 0 0 0 14.7000 130.000 1 29 998 14.8000 130.300 TS 35 998 8 335
1994186N09139 1994 42 WP MM TIM 1994-07-07 21:00:00 TS 15.2199 129.934 main 582 582 PPPP__________ WP081994 15.3075 129.907 42 0 15.2149 129.850 2 997 0 0 15.2000 129.865 1 33 997 15.1574 130.115 TS 37 996 9 338
1994186N09139 1994 42 WP MM TIM 1994-07-08 00:00:00 TS 15.6250 129.750 35 996 tokyo main 600 592 OOOO__________ jtwc_wp WP081994 15.6000 129.700 45 0 15.7000 129.700 3 35 996 0 9 180 180 0 15.7000 129.700 2 38 996 15.5000 129.900 TS 40 994 8 329
1994186N09139 1994 42 WP MM TIM 1994-07-08 03:00:00 TS 15.9136 129.508 main 592 571 PPPP__________ WP081994 15.8500 129.465 50 0 15.9943 129.474 3 37 995 0 9 190 190 15.9950 129.472 2 43 993 15.8150 129.622 TS 45 989 7 316
1994186N09139 1994 42 WP MM TIM 1994-07-08 06:00:00 TS 16.1500 129.225 40 994 tokyo main 576 558 OOOO__________ jtwc_wp WP081994 16.1000 129.200 55 0 16.2000 129.200 3 40 994 0 9 200 200 0 16.2000 129.200 3 48 990 16.1000 129.300 STS 50 985 7 310
1994186N09139 1994 42 WP MM TIM 1994-07-08 09:00:00 TS 16.3818 128.922 45 990 tokyo main 558 542 POPP__________ WP081994 16.3925 128.915 60 0 16.4000 128.900 3 45 990 0 9 220 220 0 16.3850 128.915 3 48 987 16.3500 128.957 STS 55 980 8 308
1994186N09139 1994 42 WP MM TIM 1994-07-08 12:00:00 TS 16.6250 128.600 50 985 tokyo main 542 536 OOOO__________ jtwc_wp WP081994 16.7000 128.600 65 1 16.6000 128.600 4 50 985 9 9 240 240 0 16.6000 128.600 3 48 985 16.6000 128.600 STS 60 975 8 312
1994186N09139 1994 42 WP MM TIM 1994-07-08 15:00:00 TS 16.9280 128.279 55 980 tokyo main 536 526 POPP__________ WP081994 16.9999 128.272 70 1 16.9000 128.300 4 55 980 9 30 30 9 240 240 0 16.9273 128.280 3 53 980 16.8849 128.265 STS 62 972 9 314
1994186N09139 1994 42 WP MM TIM 1994-07-08 18:00:00 TS 17.2750 127.900 60 975 tokyo main 533 526 OOOO__________ jtwc_wp WP081994 17.3000 127.900 75 1 17.3000 127.900 4 60 975 9 40 40 9 240 240 0 17.3000 127.900 3 58 975 17.2000 127.900 T 65 970 11 312
1994186N09139 1994 42 WP MM TIM 1994-07-08 21:00:00 TS 17.6288 127.459 65 970 tokyo main 528 487 POPP__________ WP081994 17.6000 127.457 82 1 17.7000 127.500 5 65 970 9 40 40 9 240 240 0 17.6651 127.415 3 63 972 17.5500 127.465 T 70 965 11 308
1994186N09139 1994 42 WP MM TIM 1994-07-09 00:00:00 TS 17.9750 126.950 75 960 tokyo main 490 443 OOOO__________ jtwc_wp WP081994 17.9000 127.000 90 2 18.1000 126.900 5 75 960 9 70 70 9 260 260 0 18.0000 126.900 4 68 970 17.9000 127.000 T 75 960 11 304
1994186N09139 1994 42 WP MM TIM 1994-07-09 03:00:00 TS 18.2374 126.517 75 960 tokyo main 443 401 POPP__________ WP081994 18.1923 126.600 97 3 18.3000 126.500 5 75 960 9 70 70 9 260 260 0 18.2575 126.420 4 72 965 18.1999 126.550 T 82 952 10 302
1994186N09139 1994 42 WP MM TIM 1994-07-09 06:00:00 TS 18.5000 126.075 80 950 tokyo main 401 361 OOOO__________ jtwc_wp WP081994 18.5000 126.200 105 3 18.5000 126.000 5 80 950 9 90 90 9 280 280 0 18.5000 126.000 4 77 960 18.5000 126.100 ST 90 945 9 306
1994186N09139 1994 42 WP MM TIM 1994-07-09 09:00:00 TS 18.7886 125.705 85 945 tokyo main 361 325 POPP__________ WP081994 18.8424 125.757 110 3 18.7000 125.700 5 85 945 9 90 90 9 280 280 0 18.7696 125.714 4 87 952 18.8424 125.650 ST 95 940 10 312
1994186N09139 1994 42 WP MM TIM 1994-07-09 12:00:00 TS 19.1500 125.325 85 940 tokyo main 328 299 OOOO__________ jtwc_wp WP081994 19.2000 125.300 115 4 19.1000 125.400 5 85 940 9 90 90 9 300 300 0 19.1000 125.400 5 97 945 19.2000 125.200 SuperT 100 935 11 313
1994186N09139 1994 42 WP MM TIM 1994-07-09 15:00:00 TS 19.5494 124.841 85 940 tokyo main 290 277 POPP__________ WP081994 19.5349 124.850 117 4 19.6000 124.900 5 85 940 9 95 95 9 300 300 0 19.5278 124.865 5 97 942 19.5349 124.750 SuperT 100 935 12 310
1994186N09139 1994 42 WP MM TIM 1994-07-09 18:00:00 TS 19.9500 124.325 90 935 tokyo main 275 268 OOOO__________ jtwc_wp WP081994 19.9000 124.400 120 4 20.0000 124.300 5 90 935 9 100 100 9 300 300 0 20.0000 124.300 5 97 940 19.9000 124.300 SuperT 100 935 12 313
1994186N09139 1994 42 WP MM TIM 1994-07-09 21:00:00 TS 20.3705 123.900 90 935 tokyo main 279 273 POPP__________ WP081994 20.3198 123.957 120 4 20.4000 123.900 5 90 935 9 100 100 9 300 300 0 20.4421 123.892 5 101 937 20.3199 123.850 SuperT 100 935 12 318
1994186N09139 1994 42 WP MM TIM 1994-07-10 00:00:00 TS 20.8500 123.475 95 930 tokyo main 291 227 OOOO__________ jtwc_wp WP081994 20.8000 123.500 120 4 20.9000 123.500 5 95 930 9 110 110 9 300 300 0 20.9000 123.500 6 106 935 20.8000 123.400 SuperT 100 935 13 320
1994186N09139 1994 42 WP MM TIM 1994-07-10 03:00:00 TS 21.3718 123.000 95 930 tokyo main 224 165 POPP__________ WP081994 21.3199 123.007 122 4 21.5000 123.000 5 95 930 9 110 110 9 300 300 0 21.3549 123.029 6 106 935 21.3123 122.964 SuperT 100 935 14 319
1994186N09139 1994 42 WP MM TIM 1994-07-10 06:00:00 TS 21.9000 122.500 95 930 tokyo main 165 90 OOOO__________ jtwc_wp WP081994 21.9000 122.500 125 4 21.9000 122.500 5 95 930 9 110 110 9 300 300 0 21.9000 122.500 6 106 935 21.9000 122.500 SuperT 100 935 15 325
1994186N09139 1994 42 WP MM TIM 1994-07-10 09:00:00 TS 22.5958 122.075 95 930 tokyo main 90 10 POPP__________ WP081994 22.5420 122.029 125 4 22.6000 122.300 5 95 930 9 110 110 9 300 300 0 22.6419 121.960 6 96 942 22.5994 122.010 SuperT 92 942 17 326
1994186N09139 1994 42 WP MM TIM 1994-07-10 12:00:00 TS 23.3250 121.450 90 940 tokyo main 10 0 OOOO__________ jtwc_wp WP081994 23.2000 121.500 125 4 23.4000 121.600 5 90 940 9 110 110 9 270 270 0 23.4000 121.300 5 87 950 23.3000 121.400 ST 85 950 20 311
1994186N09139 1994 42 WP MM TIM 1994-07-10 15:00:00 TS 23.8857 120.466 80 950 tokyo main 0 0 POPP__________ WP081994 23.8371 120.860 112 3 23.8000 120.000 5 80 950 9 90 90 9 180 180 0 24.0107 120.408 5 77 960 23.8952 120.595 ST 80 955 20 306
1994186N09139 1994 42 WP MM TIM 1994-07-10 18:00:00 TS 24.4750 119.725 75 955 tokyo main 82 10 OOOO__________ jtwc_wp WP081994 24.4000 120.100 100 3 24.6000 119.600 5 75 955 9 70 70 9 180 180 0 24.5000 119.500 4 68 970 24.4000 119.700 T 75 960 17 305
1994186N09139 1994 42 WP MM TIM 1994-07-10 21:00:00 TS 24.8915 118.910 main 0 0 PPPP__________ WP081994 24.8303 119.207 82 1 25.0502 118.728 5 72 960 9 70 70 9 165 165 24.8632 118.870 4 58 975 24.8222 118.834 T 70 965 17 296
1994186N09139 1994 42 WP MM TIM 1994-07-11 00:00:00 TS 25.2250 118.050 70 965 tokyo main 0 0 OOOO__________ jtwc_wp WP081994 25.2000 118.300 65 1 25.3000 117.700 5 70 965 9 70 70 9 150 150 0 25.2000 118.200 3 48 980 25.2000 118.000 T 65 970 17 295
1994186N09139 1994 42 WP MM TIM 1994-07-11 03:00:00 TS 25.6070 117.191 main 0 0 PPPP__________ WP081994 25.5919 117.519 60 0 25.5770 116.924 5 65 970 9 60 60 9 135 135 25.6521 117.107 3 43 982 25.6072 117.212 T 57 975 17 298
1994186N09139 1994 42 WP MM TIM 1994-07-11 06:00:00 TS 26.0000 116.420 60 975 tokyo main 0 0 OOOO__________ jtwc_wp WP081994 26.0000 116.800 55 0 25.9000 116.300 4 60 975 9 50 50 9 120 120 0 26.1000 116.100 2 38 985 26.0000 116.500 STS 50 980 15 304
1994186N09139 1994 42 WP MM TIM 1994-07-11 09:00:00 TS 26.4374 115.830 main 0 0 PPPP__________ WP081994 26.4571 116.085 45 0 26.4147 115.768 4 50 982 9 9 105 105 26.4787 115.614 2 33 987 26.3604 115.876 STS 42 982 13 313
1994186N09139 1994 42 WP MM TIM 1994-07-11 12:00:00 TS 26.8538 115.392 40 990 tokyo main 0 0 OOOO__________ jtwc_wp WP081994 26.9000 115.400 35 0 26.9000 115.400 3 40 990 0 9 90 90 0 26.8000 115.400 1 29 990 26.7000 115.300 TS 35 985 10 315
1994186N09139 1994 42 WP MM TIM 1994-07-11 15:00:00 TS 27.1481 115.045 main 0 0 PPP___________ WP081994 27.2721 114.742 27 -1 27.1223 115.189 3 991 0 9 27.0499 115.205 1 29 991 TS 8 315
1994186N09139 1994 42 WP MM TIM 1994-07-11 18:00:00 TS 27.3900 114.800 992 tokyo main 0 0 OOO___________ jtwc_wp WP081994 27.6000 114.100 20 -1 27.3000 115.100 2 992 0 0 0 27.3000 115.100 1 29 992 6 325
1994186N09139 1994 42 WP MM TIM 1994-07-11 21:00:00 TS 27.6652 114.635 main 0 0 PPP___________ WP081994 27.9057 113.453 17 -1 27.6051 115.045 2 992 0 0 27.5750 115.020 1 29 992 7 347
1994186N09139 1994 42 WP MM TIM 1994-07-12 00:00:00 TS 28.0333 114.633 992 tokyo main 0 0 OOO___________ jtwc_wp WP081994 28.2000 112.800 15 -1 28.0000 115.000 2 992 0 0 0 28.0000 115.000 1 29 992 10 20
1994186N09139 1994 42 WP MM TIM 1994-07-12 03:00:00 TS 28.5551 114.999 main 0 0 __P___________ WP081994 -1 2 0 0 28.5551 114.999 1 29 992 15 16
1994186N09139 1994 42 WP MM TIM 1994-07-12 06:00:00 TS 29.5000 115.100 main 0 0 __O___________ -1 29.5000 115.100 1 29 992 24 6
1994186N09139 1994 42 WP MM TIM 1994-07-12 09:00:00 TS 30.9776 115.313 main 0 0 __P___________ -1 30.9776 115.313 1 29 992 34 9
1994186N09139 1994 42 WP MM TIM 1994-07-12 12:00:00 TS 32.8000 115.700 main 0 0 __O___________ -1 32.8000 115.700 1 29 992 39 12
1994186N09139 1994 42 WP MM TIM 1994-07-12 15:00:00 TS 34.7905 116.315 main 0 0 __P___________ -1 34.7905 116.315 1 24 992 40 16
1994186N09139 1994 42 WP MM TIM 1994-07-12 18:00:00 TS 36.6000 117.000 main 0 0 __O___________ -1 36.6000 117.000 0 19 992 32 17
1994186N09139 1994 42 WP MM TIM 1994-07-12 21:00:00 TS 37.8277 117.454 main 0 0 __P___________ -1 37.8277 117.454 0 19 992 22 21
1994186N09139 1994 42 WP MM TIM 1994-07-13 00:00:00 TS 38.7000 118.000 main 37 0 __O___________ -1 38.7000 118.000 0 19 992 19 34
1994186N09139 1994 42 WP MM TIM 1994-07-13 03:00:00 TS 39.4210 118.855 main 0 0 __P___________ -1 39.4210 118.855 0 19 992 21 48
1994186N09139 1994 42 WP MM TIM 1994-07-13 06:00:00 TS 40.1000 120.000 main 0 0 __O___________ -1 40.1000 120.000 0 19 992 25 52
1994186N09139 1994 42 WP MM TIM 1994-07-13 09:00:00 TS 40.9476 121.413 main 8 0 __P___________ -1 40.9476 121.413 0 19 993 29 52
1994186N09139 1994 42 WP MM TIM 1994-07-13 12:00:00 ET 41.9000 123.000 main 0 __O___________ -1 41.9000 123.000 9 19 994 30 51

Digital Typhoon Data and Search

About IBTrACS Database

This database is a web-friendly format of International Best Track Archive for Climate Stewardship (IBTrACS), a global best track data archive curated by NOAA dating back to 1842.

Updated: 2021-11-26